Time;durP1;ratioP1;P1;durP2;ratioP2;P2;SDS_P1;SDS_P2;PMS_P1;PMS_P2;Temp;Humidity;BMP_temperature;BMP_pressure;BME280_temperature;BME280_humidity;BME280_pressure;Samples;Min_cycle;Max_cycle;Signal;HPM_P1;HPM_P2
2023/01/30 00:01:25;;;;;;;54.07;32.93;;;5.80;99.90;;;;;;5051245;28;20056;-85
2023/01/30 00:03:50;;;;;;;58.33;35.33;;;5.80;99.90;;;;;;5052952;28;20049;-82
2023/01/30 00:06:16;;;;;;;57.67;34.03;;;5.80;99.90;;;;;;5051346;28;20029;-85
2023/01/30 00:08:42;;;;;;;57.33;32.40;;;5.80;99.90;;;;;;5051696;28;20029;-85
2023/01/30 00:11:10;;;;;;;54.27;32.40;;;5.80;99.90;;;;;;5051670;28;20469;-85
2023/01/30 00:13:36;;;;;;;58.47;33.63;;;5.90;99.90;;;;;;5051491;28;20032;-83
2023/01/30 00:16:02;;;;;;;67.80;34.80;;;5.80;99.90;;;;;;5034889;28;20029;-85
2023/01/30 00:18:27;;;;;;;66.47;35.83;;;5.90;99.90;;;;;;5053595;28;20424;-85
2023/01/30 00:21:00;;;;;;;61.00;35.97;;;5.90;99.90;;;;;;5039171;28;20025;-84
2023/01/30 00:23:27;;;;;;;58.73;35.27;;;5.90;99.90;;;;;;5055506;28;20469;-83
2023/01/30 00:25:53;;;;;;;63.53;35.70;;;5.90;99.90;;;;;;5056782;28;20032;-84
2023/01/30 00:28:19;;;;;;;60.03;35.43;;;5.90;99.90;;;;;;5055266;28;20037;-84
2023/01/30 00:30:48;;;;;;;66.33;37.00;;;5.90;99.90;;;;;;5055522;28;20040;-83
2023/01/30 00:33:13;;;;;;;57.80;35.73;;;5.90;99.90;;;;;;5038645;28;20033;-82
2023/01/30 00:35:46;;;;;;;55.63;33.10;;;5.90;99.90;;;;;;5022023;28;20036;-84
2023/01/30 00:38:12;;;;;;;61.27;36.30;;;5.90;99.90;;;;;;5038754;28;20048;-83
2023/01/30 00:40:38;;;;;;;64.37;37.70;;;6.00;99.90;;;;;;5054613;28;20032;-82
2023/01/30 00:48:35;;;;;;;62.60;36.77;;;5.90;99.90;;;;;;5056042;28;20514;-82
2023/01/30 00:51:01;;;;;;;59.07;35.37;;;6.00;99.90;;;;;;5038221;28;20037;-82
2023/01/30 00:53:26;;;;;;;67.63;37.33;;;6.00;99.90;;;;;;5054794;28;20031;-82
2023/01/30 00:55:53;;;;;;;61.67;35.60;;;6.00;99.90;;;;;;5054891;28;20158;-82
2023/01/30 00:58:20;;;;;;;64.87;37.93;;;6.00;99.90;;;;;;5054822;28;20055;-84
2023/01/30 01:00:46;;;;;;;58.70;35.07;;;6.00;99.90;;;;;;5055860;28;20032;-84
2023/01/30 01:03:12;;;;;;;65.20;35.43;;;6.00;99.90;;;;;;5037698;28;20045;-82
2023/01/30 01:05:38;;;;;;;59.70;34.27;;;6.10;99.90;;;;;;5054309;28;20496;-83
2023/01/30 01:08:04;;;;;;;66.57;34.27;;;6.10;99.90;;;;;;5054589;28;20029;-83
2023/01/30 01:10:30;;;;;;;56.57;35.20;;;6.10;99.90;;;;;;5054734;28;20044;-83
2023/01/30 01:12:55;;;;;;;60.93;36.60;;;6.10;99.90;;;;;;5055970;28;20029;-83
2023/01/30 01:15:22;;;;;;;63.87;36.47;;;6.20;99.90;;;;;;5054357;28;20484;-82
2023/01/30 01:17:49;;;;;;;66.60;38.10;;;6.20;99.90;;;;;;5055280;28;20481;-82
2023/01/30 01:20:15;;;;;;;60.63;37.27;;;6.20;99.90;;;;;;5054572;28;20037;-83
2023/01/30 01:22:41;;;;;;;59.10;36.00;;;6.20;99.90;;;;;;5054278;28;20021;-82
2023/01/30 01:25:09;;;;;;;57.03;35.23;;;6.20;99.90;;;;;;5054131;28;20033;-82
2023/01/30 01:27:34;;;;;;;61.73;36.57;;;6.30;99.90;;;;;;5053721;28;20051;-82
2023/01/30 01:30:00;;;;;;;62.93;36.47;;;6.30;99.90;;;;;;5036861;28;20045;-82
2023/01/30 01:32:26;;;;;;;61.30;35.20;;;6.30;99.90;;;;;;5037346;28;20033;-82
2023/01/30 01:34:51;;;;;;;62.97;36.23;;;6.30;99.90;;;;;;5053678;28;20132;-81
2023/01/30 01:37:17;;;;;;;63.27;36.43;;;6.30;99.90;;;;;;5037181;28;20021;-82
2023/01/30 01:42:31;;;;;;;55.97;36.47;;;6.30;99.90;;;;;;5040302;28;20052;-82
2023/01/30 01:45:10;;;;;;;57.07;35.37;;;6.30;99.90;;;;;;5054874;28;20025;-81
2023/01/30 01:47:39;;;;;;;62.70;35.87;;;6.30;99.90;;;;;;5054056;28;20358;-82
2023/01/30 01:50:06;;;;;;;61.07;34.73;;;6.40;99.90;;;;;;5053326;28;20401;-81
2023/01/30 01:52:31;;;;;;;63.00;37.23;;;6.40;99.90;;;;;;5055418;28;20108;-82
2023/01/30 01:55:01;;;;;;;55.83;35.10;;;6.30;99.90;;;;;;5036982;28;20136;-82
2023/01/30 01:57:43;;;;;;;55.50;33.60;;;6.30;99.90;;;;;;5054542;28;20362;-82
2023/01/30 02:00:14;;;;;;;59.03;34.00;;;6.30;99.90;;;;;;5053794;28;20017;-82
2023/01/30 02:02:55;;;;;;;56.90;33.00;;;6.40;99.90;;;;;;5052919;28;20098;-82
2023/01/30 02:05:21;;;;;;;53.20;32.37;;;6.40;99.90;;;;;;5052923;28;20021;-81
2023/01/30 02:08:04;;;;;;;52.07;33.87;;;6.40;99.90;;;;;;5036373;28;20074;-82
2023/01/30 02:10:49;;;;;;;59.27;35.20;;;6.40;99.90;;;;;;5053336;28;20033;-82
2023/01/30 02:13:16;;;;;;;53.80;33.43;;;6.40;99.90;;;;;;5053198;28;20021;-83
2023/01/30 02:15:42;;;;;;;51.27;31.57;;;6.40;99.90;;;;;;5053140;28;20021;-81
2023/01/30 02:18:08;;;;;;;53.90;30.50;;;6.40;99.90;;;;;;5053348;28;20475;-81
2023/01/30 02:21:04;;;;;;;54.77;32.77;;;6.40;99.90;;;;;;5054523;28;20108;-83
2023/01/30 02:23:51;;;;;;;48.10;30.30;;;6.50;99.90;;;;;;5053097;28;20039;-83
2023/01/30 02:26:31;;;;;;;48.90;30.60;;;6.50;99.90;;;;;;5053509;28;20025;-83
2023/01/30 02:29:28;;;;;;;54.43;28.97;;;6.50;99.90;;;;;;5053044;28;20033;-83
2023/01/30 02:31:53;;;;;;;45.00;28.87;;;6.50;99.90;;;;;;5054308;28;20027;-82
2023/01/30 02:34:50;;;;;;;42.33;24.00;;;6.60;99.90;;;;;;5054202;28;20036;-82
2023/01/30 02:37:40;;;;;;;43.17;25.33;;;6.60;99.90;;;;;;5052894;28;20112;-83
2023/01/30 02:40:18;;;;;;;47.23;24.53;;;6.60;99.90;;;;;;5053025;28;20071;-83
2023/01/30 02:42:52;;;;;;;39.60;22.43;;;6.60;99.90;;;;;;5052153;28;20068;-85
2023/01/30 02:45:35;;;;;;;36.85;19.95;;;6.60;99.90;;;;;;5052384;28;20020;-85
2023/01/30 02:48:13;;;;;;;30.73;18.40;;;6.60;99.90;;;;;;5052493;28;20021;-82
2023/01/30 02:50:56;;;;;;;32.40;17.83;;;6.70;99.90;;;;;;5052842;28;20104;-83
2023/01/30 02:53:22;;;;;;;26.77;15.87;;;6.70;99.90;;;;;;5052498;28;20018;-81
2023/01/30 02:55:48;;;;;;;28.33;16.70;;;6.80;99.90;;;;;;5035603;28;20025;-83
2023/01/30 02:58:18;;;;;;;28.73;16.67;;;6.80;99.90;;;;;;5035738;28;20033;-82
2023/01/30 03:00:46;;;;;;;31.03;17.63;;;6.80;99.90;;;;;;5036028;28;20056;-83
2023/01/30 03:03:27;;;;;;;30.60;18.47;;;6.80;99.90;;;;;;5051984;28;20045;-82
2023/01/30 03:06:43;;;;;;;32.67;17.20;;;6.80;99.90;;;;;;5053147;28;20347;-83
2023/01/30 03:09:24;;;;;;;26.67;17.67;;;6.80;99.90;;;;;;5026671;28;20132;-83
2023/01/30 03:12:07;;;;;;;36.27;20.20;;;6.90;99.90;;;;;;5052270;28;20067;-83
2023/01/30 03:14:59;;;;;;;32.33;17.03;;;6.80;99.90;;;;;;5052455;28;20051;-84
2023/01/30 03:17:27;;;;;;;35.37;19.53;;;6.80;99.90;;;;;;5051835;28;20021;-82
2023/01/30 03:19:54;;;;;;;33.90;18.57;;;6.80;99.90;;;;;;5051977;28;20388;-82
2023/01/30 03:22:20;;;;;;;34.73;17.70;;;6.80;99.90;;;;;;5035598;28;20504;-82
2023/01/30 03:24:48;;;;;;;35.50;19.50;;;6.80;99.90;;;;;;5053066;28;20096;-82
2023/01/30 03:27:14;;;;;;;31.57;18.17;;;6.80;99.90;;;;;;5053052;28;20032;-81
2023/01/30 03:29:40;;;;;;;34.67;17.87;;;6.70;99.90;;;;;;5034994;28;20748;-82
2023/01/30 03:32:06;;;;;;;33.67;17.77;;;6.80;99.90;;;;;;5052030;28;20025;-82
2023/01/30 03:34:31;;;;;;;33.50;17.23;;;6.80;99.90;;;;;;5051723;28;20040;-82
2023/01/30 03:36:57;;;;;;;30.63;16.40;;;6.80;99.90;;;;;;5035217;28;20381;-81
2023/01/30 03:39:24;;;;;;;28.10;16.10;;;6.80;99.90;;;;;;5034973;28;20467;-81
2023/01/30 03:41:51;;;;;;;31.10;16.03;;;6.80;99.90;;;;;;5053044;28;20155;-81
2023/01/30 03:44:16;;;;;;;35.00;15.30;;;6.80;99.90;;;;;;5051335;28;20381;-82
2023/01/30 03:46:42;;;;;;;28.10;14.23;;;6.80;99.90;;;;;;5035639;28;20029;-82
2023/01/30 03:49:08;;;;;;;29.27;15.13;;;6.80;99.90;;;;;;5018889;28;20044;-83
2023/01/30 03:51:34;;;;;;;31.63;14.90;;;6.80;99.90;;;;;;5035073;28;20037;-81
2023/01/30 03:53:59;;;;;;;26.33;14.93;;;6.80;99.90;;;;;;5056951;28;20029;-82
2023/01/30 03:56:25;;;;;;;25.70;14.43;;;6.80;99.90;;;;;;5041989;28;20029;-83
2023/01/30 03:58:50;;;;;;;28.03;14.87;;;6.80;99.90;;;;;;5041950;28;20028;-84
2023/01/30 04:01:16;;;;;;;29.73;15.10;;;6.90;99.90;;;;;;5058594;28;20037;-84
2023/01/30 04:03:41;;;;;;;28.27;14.13;;;6.90;99.90;;;;;;5041392;28;20049;-83
2023/01/30 04:06:07;;;;;;;24.60;14.10;;;6.80;99.90;;;;;;5024777;28;20029;-84
2023/01/30 04:08:33;;;;;;;31.00;14.00;;;6.90;99.90;;;;;;5041986;28;20037;-82
2023/01/30 04:10:58;;;;;;;29.13;16.00;;;6.90;99.90;;;;;;5060384;28;20449;-82
2023/01/30 04:13:24;;;;;;;34.63;14.83;;;6.90;99.90;;;;;;5058369;28;20037;-82
2023/01/30 04:15:50;;;;;;;32.53;14.30;;;6.90;99.90;;;;;;5042052;28;20033;-82
2023/01/30 04:18:16;;;;;;;28.80;13.63;;;6.90;99.90;;;;;;5041517;28;20037;-83
2023/01/30 04:20:41;;;;;;;29.43;13.27;;;6.90;99.90;;;;;;5058314;28;20121;-82
2023/01/30 04:23:07;;;;;;;28.73;13.50;;;6.80;99.90;;;;;;5041313;28;20025;-84
2023/01/30 04:25:32;;;;;;;25.87;14.40;;;7.00;99.90;;;;;;5058216;28;20124;-84
2023/01/30 04:27:58;;;;;;;27.77;14.00;;;7.00;99.90;;;;;;5040839;28;20025;-84
2023/01/30 04:30:24;;;;;;;31.63;15.07;;;7.00;99.90;;;;;;5058247;28;20433;-82
2023/01/30 04:32:49;;;;;;;24.93;13.57;;;7.00;99.90;;;;;;5041238;28;20029;-82
2023/01/30 04:35:15;;;;;;;29.20;13.43;;;7.00;99.90;;;;;;5041093;28;20027;-82
2023/01/30 04:37:41;;;;;;;26.13;12.40;;;7.10;99.90;;;;;;5057420;28;20025;-82
2023/01/30 04:40:07;;;;;;;27.43;13.70;;;7.10;99.90;;;;;;5034955;28;20393;-82
2023/01/30 04:42:33;;;;;;;23.07;11.80;;;7.10;99.90;;;;;;5049688;28;20040;-84
2023/01/30 04:44:58;;;;;;;28.83;13.43;;;7.10;99.90;;;;;;5041394;28;20029;-83
2023/01/30 04:47:24;;;;;;;31.17;12.93;;;7.10;99.90;;;;;;5041445;28;20492;-84
2023/01/30 04:49:49;;;;;;;28.67;12.03;;;7.10;99.90;;;;;;5040989;28;20040;-84
2023/01/30 04:52:15;;;;;;;30.80;11.93;;;7.20;99.90;;;;;;5057579;28;20025;-84
2023/01/30 04:54:41;;;;;;;29.00;11.90;;;7.20;99.90;;;;;;5057828;28;20056;-83
2023/01/30 04:57:06;;;;;;;29.07;12.80;;;7.20;99.90;;;;;;5058141;28;20079;-84
2023/01/30 04:59:32;;;;;;;28.37;12.23;;;7.20;99.90;;;;;;5058214;28;20471;-84
2023/01/30 05:01:58;;;;;;;22.10;11.40;;;7.20;99.90;;;;;;5057836;28;20049;-83
2023/01/30 05:04:23;;;;;;;28.43;10.93;;;7.30;99.90;;;;;;5038600;28;20074;-82
2023/01/30 05:06:49;;;;;;;23.47;10.83;;;7.20;99.90;;;;;;5053923;28;20017;-83
2023/01/30 05:09:14;;;;;;;26.67;10.00;;;7.30;99.90;;;;;;5054548;28;20044;-83
2023/01/30 05:11:40;;;;;;;25.97;9.97;;;7.20;99.90;;;;;;5021467;28;20052;-82
2023/01/30 05:14:06;;;;;;;26.87;9.77;;;7.30;99.90;;;;;;5054430;28;20039;-83
2023/01/30 05:16:31;;;;;;;25.27;8.97;;;7.30;99.90;;;;;;5054576;28;20021;-82
2023/01/30 05:18:57;;;;;;;23.93;9.27;;;7.30;99.90;;;;;;5039109;28;20025;-83
2023/01/30 05:21:26;;;;;;;27.70;9.30;;;7.30;99.90;;;;;;5041563;28;20025;-82
2023/01/30 05:23:52;;;;;;;24.83;9.30;;;7.30;99.90;;;;;;5045441;28;20038;-83
2023/01/30 05:26:18;;;;;;;28.03;8.57;;;7.30;99.90;;;;;;5051059;28;20461;-82
2023/01/30 05:28:49;;;;;;;27.57;8.63;;;7.30;99.90;;;;;;5045947;28;20037;-83
2023/01/30 05:31:15;;;;;;;18.97;8.13;;;7.30;99.90;;;;;;5017779;28;20021;-83
2023/01/30 05:33:40;;;;;;;20.73;8.10;;;7.30;99.90;;;;;;5033383;28;20116;-83
2023/01/30 05:36:07;;;;;;;21.23;7.83;;;7.30;99.90;;;;;;5001065;28;20036;-82
2023/01/30 05:38:32;;;;;;;19.27;6.33;;;7.30;99.90;;;;;;5034416;28;20065;-83
2023/01/30 05:41:03;;;;;;;13.57;6.27;;;7.30;99.90;;;;;;5033891;28;20053;-83
2023/01/30 05:43:29;;;;;;;16.70;5.60;;;7.40;99.90;;;;;;5018039;28;20029;-82
2023/01/30 05:45:57;;;;;;;13.43;5.37;;;7.40;99.90;;;;;;5035116;28;20371;-82
2023/01/30 05:48:23;;;;;;;18.30;4.60;;;7.40;99.90;;;;;;5035084;28;20034;-83
2023/01/30 05:50:54;;;;;;;18.97;3.73;;;7.50;99.90;;;;;;5034006;28;20022;-82
2023/01/30 05:53:21;;;;;;;10.17;2.97;;;7.40;99.90;;;;;;5033464;28;20053;-83
2023/01/30 05:55:54;;;;;;;13.20;2.77;;;7.40;99.90;;;;;;5033613;28;20531;-83
2023/01/30 05:58:20;;;;;;;12.53;2.73;;;7.60;99.90;;;;;;5034061;28;20025;-83
2023/01/30 06:00:46;;;;;;;16.93;2.73;;;7.50;99.90;;;;;;5016713;28;20033;-83
2023/01/30 06:03:11;;;;;;;21.30;2.83;;;7.50;99.90;;;;;;5033487;28;20054;-84
2023/01/30 06:05:37;;;;;;;23.73;3.57;;;7.50;99.90;;;;;;5016981;28;20553;-82
2023/01/30 06:08:03;;;;;;;19.70;3.63;;;7.50;99.90;;;;;;5000911;28;20025;-82
2023/01/30 06:10:28;;;;;;;15.93;3.03;;;7.60;99.90;;;;;;5017173;28;20104;-84
2023/01/30 06:12:54;;;;;;;14.53;2.57;;;7.60;99.90;;;;;;5034474;28;20394;-83
2023/01/30 06:15:20;;;;;;;12.17;2.30;;;7.50;99.90;;;;;;5016426;28;20029;-82
2023/01/30 06:17:45;;;;;;;13.10;2.30;;;7.50;99.90;;;;;;5034526;28;20025;-82
2023/01/30 06:20:11;;;;;;;17.03;2.60;;;7.50;99.90;;;;;;5017039;28;20033;-82
2023/01/30 06:22:37;;;;;;;14.37;2.23;;;7.50;99.90;;;;;;5000395;28;20060;-83
2023/01/30 06:25:04;;;;;;;22.10;2.47;;;7.40;99.90;;;;;;5033361;28;20056;-82
2023/01/30 06:27:29;;;;;;;16.57;2.33;;;7.40;99.90;;;;;;5033219;28;20116;-82
2023/01/30 06:29:55;;;;;;;13.30;2.70;;;7.40;99.90;;;;;;5016401;28;20128;-83
2023/01/30 06:32:21;;;;;;;13.43;2.87;;;7.40;99.90;;;;;;5016271;28;20107;-83
2023/01/30 06:34:46;;;;;;;18.53;2.40;;;7.40;99.90;;;;;;5033176;28;20053;-82
2023/01/30 06:37:12;;;;;;;14.67;2.60;;;7.30;99.90;;;;;;5016246;28;20033;-82
2023/01/30 06:39:37;;;;;;;14.37;2.03;;;7.30;99.90;;;;;;5033691;28;20478;-82
2023/01/30 06:42:03;;;;;;;18.07;2.90;;;7.40;99.90;;;;;;5016436;28;20021;-82
2023/01/30 06:44:29;;;;;;;13.40;2.37;;;7.30;99.90;;;;;;5016391;28;20099;-83
2023/01/30 06:46:55;;;;;;;15.20;2.60;;;7.30;99.90;;;;;;5032857;28;20462;-83
2023/01/30 06:49:20;;;;;;;18.40;2.30;;;7.30;99.90;;;;;;5000198;28;20037;-82
2023/01/30 06:51:46;;;;;;;21.77;3.20;;;7.30;99.90;;;;;;5032719;28;20025;-83
2023/01/30 06:54:11;;;;;;;15.70;2.93;;;7.20;99.90;;;;;;5032743;28;20079;-83
2023/01/30 06:56:37;;;;;;;15.97;2.70;;;7.20;99.90;;;;;;5033108;28;20025;-82
2023/01/30 06:59:03;;;;;;;19.07;2.77;;;7.10;99.90;;;;;;5041244;28;20434;-83
2023/01/30 07:01:28;;;;;;;24.83;3.77;;;7.10;99.90;;;;;;5025703;28;20025;-83
2023/01/30 07:03:54;;;;;;;19.07;2.60;;;7.00;99.90;;;;;;5034456;28;20056;-82
2023/01/30 07:06:20;;;;;;;14.47;2.90;;;7.00;99.90;;;;;;5050317;28;20545;-83
2023/01/30 07:08:45;;;;;;;15.90;3.47;;;6.90;99.90;;;;;;5037166;28;20048;-83
2023/01/30 07:11:11;;;;;;;21.43;2.77;;;6.90;99.90;;;;;;5044724;28;20393;-83
2023/01/30 07:13:36;;;;;;;19.93;3.33;;;6.80;99.90;;;;;;5036464;28;20025;-83
2023/01/30 07:16:02;;;;;;;21.73;2.70;;;6.80;99.90;;;;;;5036488;28;20115;-83
2023/01/30 07:18:28;;;;;;;24.83;3.03;;;6.80;99.90;;;;;;5035993;28;20504;-85
2023/01/30 07:20:53;;;;;;;15.47;2.50;;;6.70;99.90;;;;;;5036401;28;20095;-83
2023/01/30 07:23:19;;;;;;;22.70;3.87;;;6.70;99.90;;;;;;5052645;28;20064;-83
2023/01/30 07:25:45;;;;;;;18.73;3.43;;;6.70;99.90;;;;;;5036871;28;20076;-83
2023/01/30 07:28:10;;;;;;;25.03;3.47;;;6.60;99.90;;;;;;5035032;28;20025;-82
2023/01/30 07:30:36;;;;;;;22.70;3.83;;;6.60;99.90;;;;;;5036076;28;20033;-82
2023/01/30 07:33:04;;;;;;;21.47;3.50;;;6.60;99.90;;;;;;5039728;28;20097;-83
2023/01/30 07:35:34;;;;;;;25.37;4.70;;;6.60;99.90;;;;;;5052426;28;20017;-82
2023/01/30 07:38:00;;;;;;;24.27;3.37;;;6.60;99.90;;;;;;5053870;28;20025;-83
2023/01/30 07:40:26;;;;;;;23.60;3.23;;;6.50;99.90;;;;;;5035846;28;20033;-82
2023/01/30 07:42:59;;;;;;;23.87;3.17;;;6.50;99.90;;;;;;5051445;28;20032;-84
2023/01/30 07:45:30;;;;;;;19.90;3.35;;;6.60;99.90;;;;;;5051797;28;20124;-84
2023/01/30 07:47:55;;;;;;;21.83;2.67;;;6.60;99.90;;;;;;5052089;28;20380;-84
2023/01/30 07:50:21;;;;;;;29.87;4.13;;;6.60;99.90;;;;;;5053545;28;20070;-83
2023/01/30 07:52:47;;;;;;;23.17;3.50;;;6.60;99.90;;;;;;5026027;28;20026;-82
2023/01/30 07:55:12;;;;;;;25.10;4.37;;;6.50;99.90;;;;;;5022800;28;20028;-82
2023/01/30 07:57:38;;;;;;;22.60;4.40;;;6.50;99.90;;;;;;5016207;28;20110;-82
2023/01/30 08:00:04;;;;;;;22.23;2.97;;;6.50;99.90;;;;;;5032889;28;20517;-80
2023/01/30 08:02:30;;;;;;;23.57;3.17;;;6.50;99.90;;;;;;5038595;28;20059;-79
2023/01/30 08:04:55;;;;;;;20.40;3.83;;;6.50;99.90;;;;;;5031321;28;20120;-80
2023/01/30 08:07:21;;;;;;;18.57;2.93;;;6.40;99.90;;;;;;5034825;28;20067;-78
2023/01/30 08:09:47;;;;;;;23.10;3.33;;;6.40;99.90;;;;;;5051191;28;20041;-78
2023/01/30 08:12:12;;;;;;;23.13;4.20;;;6.40;99.90;;;;;;5034187;28;20136;-79
2023/01/30 08:14:38;;;;;;;22.73;3.33;;;6.50;99.90;;;;;;5035211;28;20819;-79
2023/01/30 08:17:03;;;;;;;24.23;3.63;;;6.40;99.90;;;;;;5051717;28;20036;-79
2023/01/30 08:19:29;;;;;;;21.53;2.97;;;6.40;99.90;;;;;;5034632;28;20033;-79
2023/01/30 08:21:55;;;;;;;24.20;3.13;;;6.50;99.90;;;;;;5052399;28;20043;-77
2023/01/30 08:24:20;;;;;;;23.87;4.20;;;6.40;99.90;;;;;;5050336;28;20040;-80
2023/01/30 08:26:49;;;;;;;21.50;2.73;;;6.40;99.90;;;;;;5043441;28;20453;-79
2023/01/30 08:29:15;;;;;;;14.90;2.43;;;6.50;99.90;;;;;;5052539;28;20037;-79
2023/01/30 08:31:41;;;;;;;23.87;4.37;;;6.60;99.90;;;;;;5052296;28;20029;-79
2023/01/30 08:34:06;;;;;;;27.93;4.63;;;6.60;99.80;;;;;;5052627;28;20369;-78
2023/01/30 08:36:32;;;;;;;22.87;4.10;;;6.60;99.50;;;;;;5034396;28;20037;-77
2023/01/30 08:38:57;;;;;;;22.00;3.17;;;6.60;99.20;;;;;;5034216;28;20139;-80
2023/01/30 08:41:25;;;;;;;24.30;2.73;;;6.70;99.10;;;;;;5054609;28;20071;-81
2023/01/30 08:43:51;;;;;;;19.13;2.97;;;6.70;99.00;;;;;;5042500;28;20120;-78
2023/01/30 08:46:18;;;;;;;20.27;2.67;;;6.70;98.30;;;;;;5035899;28;20160;-79
2023/01/30 08:48:45;;;;;;;23.53;3.27;;;6.80;98.30;;;;;;5018207;28;20044;-77
2023/01/30 08:51:10;;;;;;;19.93;3.43;;;6.80;98.30;;;;;;5018215;28;20032;-77
2023/01/30 08:53:36;;;;;;;14.53;2.10;;;6.80;98.30;;;;;;5036001;28;20029;-77
2023/01/30 08:56:02;;;;;;;19.60;3.07;;;6.80;97.90;;;;;;5034486;28;20160;-77
2023/01/30 08:58:27;;;;;;;18.87;2.87;;;6.90;97.30;;;;;;5034908;28;20444;-80
2023/01/30 09:00:53;;;;;;;21.37;2.60;;;6.90;97.20;;;;;;5031129;28;20037;-80
2023/01/30 09:03:19;;;;;;;22.93;3.43;;;7.00;96.60;;;;;;5037468;28;20049;-80
2023/01/30 09:05:45;;;;;;;21.57;2.77;;;7.00;96.70;;;;;;5054089;28;20107;-81
2023/01/30 09:08:11;;;;;;;20.33;2.83;;;7.10;96.20;;;;;;5037942;28;20029;-80
2023/01/30 09:10:36;;;;;;;20.30;2.70;;;7.10;95.90;;;;;;5054509;28;20029;-80
2023/01/30 09:13:04;;;;;;;15.97;2.93;;;7.30;95.90;;;;;;5055641;28;20029;-81
2023/01/30 09:15:30;;;;;;;15.30;2.30;;;7.40;96.10;;;;;;5037860;28;20120;-80
2023/01/30 09:17:56;;;;;;;15.67;2.83;;;7.40;95.80;;;;;;5054405;28;20025;-80
2023/01/30 09:20:21;;;;;;;17.30;3.20;;;7.50;95.00;;;;;;5054265;28;20035;-80
2023/01/30 09:22:48;;;;;;;21.43;2.97;;;7.50;94.80;;;;;;5037408;28;20424;-80
2023/01/30 09:25:13;;;;;;;20.23;2.77;;;7.60;93.70;;;;;;5053803;28;20025;-80
2023/01/30 09:27:43;;;;;;;12.73;1.90;;;7.60;93.50;;;;;;5054082;28;20089;-81
2023/01/30 09:30:09;;;;;;;15.37;2.73;;;7.60;93.20;;;;;;5053842;28;20036;-80
2023/01/30 09:32:36;;;;;;;15.30;2.50;;;7.70;93.10;;;;;;5053089;28;20025;-81
2023/01/30 09:35:02;;;;;;;16.80;2.30;;;7.70;92.80;;;;;;5054191;28;20025;-80
2023/01/30 09:37:28;;;;;;;14.23;2.10;;;7.80;92.70;;;;;;5055186;28;20025;-81
2023/01/30 09:39:54;;;;;;;21.20;2.40;;;7.70;92.50;;;;;;5054324;28;20512;-80
2023/01/30 09:42:48;;;;;;;20.73;2.23;;;7.90;93.00;;;;;;5053689;28;20036;-81
2023/01/30 09:45:48;;;;;;;19.87;2.90;;;7.80;92.50;;;;;;5029527;28;20037;-81
2023/01/30 09:48:23;;;;;;;21.73;2.90;;;7.80;92.40;;;;;;5046286;28;20025;-81
2023/01/30 09:51:15;;;;;;;15.50;2.43;;;7.80;92.40;;;;;;5052878;28;20120;-80
2023/01/30 09:54:03;;;;;;;19.23;2.63;;;7.80;92.10;;;;;;5053539;28;20381;-80
2023/01/30 09:56:29;;;;;;;18.93;2.83;;;7.80;92.10;;;;;;5053369;28;20035;-81
2023/01/30 09:59:00;;;;;;;13.53;2.87;;;7.80;92.40;;;;;;5036661;28;20123;-81
2023/01/30 10:01:53;;;;;;;24.60;3.10;;;7.80;92.20;;;;;;5048407;28;20419;-80
2023/01/30 10:04:24;;;;;;;14.93;3.00;;;7.90;92.10;;;;;;5029866;28;20056;-81
2023/01/30 10:07:12;;;;;;;19.17;3.43;;;7.90;92.10;;;;;;5039778;28;20049;-79
2023/01/30 10:10:09;;;;;;;18.27;2.07;;;8.00;91.90;;;;;;5047546;28;20036;-79
2023/01/30 10:13:18;;;;;;;21.03;3.33;;;8.00;92.20;;;;;;5049877;28;20032;-79
2023/01/30 10:16:11;;;;;;;14.37;2.73;;;8.10;91.90;;;;;;5039180;28;20029;-79
2023/01/30 10:19:06;;;;;;;19.20;3.10;;;8.20;91.20;;;;;;5033882;28;20041;-79
2023/01/30 10:21:41;;;;;;;17.23;2.77;;;8.30;91.20;;;;;;5033148;28;20035;-79
2023/01/30 10:24:07;;;;;;;17.83;2.50;;;8.30;91.10;;;;;;5046524;28;20036;-80
2023/01/30 10:26:33;;;;;;;17.33;2.13;;;8.40;91.20;;;;;;5053529;28;20520;-78
2023/01/30 10:29:04;;;;;;;22.37;2.80;;;8.40;91.00;;;;;;5054027;28;20098;-78
2023/01/30 10:31:50;;;;;;;20.47;4.17;;;8.30;90.50;;;;;;5053429;28;20025;-78
2023/01/30 10:34:32;;;;;;;21.03;2.43;;;8.30;90.40;;;;;;5052653;28;20025;-78
2023/01/30 10:37:28;;;;;;;21.77;2.87;;;8.30;90.50;;;;;;5053344;28;20028;-78
2023/01/30 10:40:12;;;;;;;18.50;2.70;;;8.20;90.60;;;;;;5052559;28;20032;-78
2023/01/30 10:42:56;;;;;;;21.52;3.05;;;8.20;90.60;;;;;;5052337;28;20025;-78
2023/01/30 10:45:29;;;;;;;16.90;2.63;;;8.20;90.70;;;;;;5052663;28;20029;-78
2023/01/30 10:48:09;;;;;;;14.10;2.30;;;8.10;90.80;;;;;;5054036;28;20028;-78
2023/01/30 10:50:41;;;;;;;25.93;3.43;;;8.20;90.90;;;;;;5051900;28;20037;-78
2023/01/30 10:53:20;;;;;;;26.07;2.90;;;8.20;90.90;;;;;;5052575;28;20036;-78
2023/01/30 10:56:07;;;;;;;18.17;3.23;;;8.30;90.50;;;;;;5048090;28;20095;-78
2023/01/30 10:58:47;;;;;;;18.97;2.60;;;8.30;90.30;;;;;;5033373;28;20048;-80
2023/01/30 11:01:13;;;;;;;22.70;2.73;;;8.30;90.10;;;;;;5031418;28;20033;-79
2023/01/30 11:03:41;;;;;;;23.40;3.80;;;8.30;90.00;;;;;;5032094;28;20402;-78
2023/01/30 11:06:12;;;;;;;19.80;3.70;;;8.30;90.20;;;;;;5033377;28;20040;-79
2023/01/30 11:08:38;;;;;;;23.57;2.90;;;8.40;90.10;;;;;;5033615;28;20029;-78
2023/01/30 11:11:27;;;;;;;17.37;2.43;;;8.40;89.80;;;;;;5032521;28;20034;-78
2023/01/30 11:14:10;;;;;;;21.27;3.80;;;8.50;89.50;;;;;;5033258;28;20029;-80
2023/01/30 11:16:52;;;;;;;22.00;2.17;;;8.60;88.30;;;;;;5035797;28;20025;-79
2023/01/30 11:19:23;;;;;;;19.00;2.50;;;8.70;88.00;;;;;;5041635;28;20051;-78
2023/01/30 11:21:52;;;;;;;18.73;2.57;;;8.80;87.70;;;;;;5051581;28;20481;-78
2023/01/30 11:24:27;;;;;;;22.37;2.70;;;9.00;89.30;;;;;;5052912;28;20054;-78
2023/01/30 11:26:54;;;;;;;19.90;2.70;;;9.50;87.10;;;;;;5043100;28;20515;-79
2023/01/30 11:29:25;;;;;;;23.15;2.60;;;10.00;85.30;;;;;;5052107;28;20076;-79
2023/01/30 11:31:52;;;;;;;17.92;2.80;;;10.40;83.90;;;;;;5053099;28;20033;-80
2023/01/30 11:34:20;;;;;;;15.02;2.85;;;10.50;81.90;;;;;;5051835;28;20481;-78
2023/01/30 11:36:46;;;;;;;22.20;3.10;;;10.60;81.30;;;;;;5049999;28;20025;-77
2023/01/30 11:39:12;;;;;;;12.77;2.47;;;10.80;80.80;;;;;;5034800;28;20036;-77
2023/01/30 11:41:42;;;;;;;16.33;3.40;;;11.20;80.90;;;;;;5051353;28;20037;-78
2023/01/30 11:44:10;;;;;;;17.63;2.25;;;11.40;77.60;;;;;;5034483;28;20132;-77
2023/01/30 11:46:39;;;;;;;17.60;2.35;;;11.30;75.10;;;;;;5052901;28;20036;-77
2023/01/30 11:49:17;;;;;;;14.15;3.20;;;11.30;74.70;;;;;;5051728;28;20127;-78
2023/01/30 11:51:46;;;;;;;16.60;2.97;;;11.50;75.50;;;;;;5052502;28;20179;-78
2023/01/30 11:54:33;;;;;;;15.90;2.50;;;11.60;74.60;;;;;;5052382;28;20045;-78
2023/01/30 11:57:02;;;;;;;13.40;2.83;;;11.70;73.30;;;;;;5051369;28;20021;-77
2023/01/30 11:59:36;;;;;;;18.05;3.40;;;11.60;71.90;;;;;;5052533;28;20025;-77
2023/01/30 12:02:15;;;;;;;16.08;2.58;;;11.60;72.00;;;;;;5050691;28;20048;-77
2023/01/30 12:05:03;;;;;;;19.30;2.63;;;11.80;71.70;;;;;;5051587;28;20432;-78
2023/01/30 12:07:31;;;;;;;16.70;2.70;;;11.70;70.40;;;;;;5051531;28;20021;-78
2023/01/30 12:09:58;;;;;;;16.80;2.60;;;11.60;70.10;;;;;;5052370;28;20037;-77
2023/01/30 12:12:35;;;;;;;19.70;2.65;;;11.40;70.70;;;;;;5047711;28;20409;-77
2023/01/30 12:15:15;;;;;;;12.93;3.20;;;11.30;71.50;;;;;;5037846;28;20485;-78
2023/01/30 12:18:05;;;;;;;19.17;2.47;;;11.40;72.30;;;;;;5035276;28;20029;-78
2023/01/30 12:20:57;;;;;;;15.80;2.42;;;11.80;72.40;;;;;;5045693;28;20047;-78
2023/01/30 12:23:34;;;;;;;16.45;2.45;;;12.10;70.10;;;;;;5055598;28;20024;-78
2023/01/30 12:26:11;;;;;;;15.70;3.58;;;12.00;67.80;;;;;;5056560;28;20102;-78
2023/01/30 12:28:40;;;;;;;18.75;3.00;;;11.70;67.40;;;;;;5056112;28;20029;-78
2023/01/30 12:31:23;;;;;;;21.02;3.13;;;11.40;67.70;;;;;;5051964;28;20047;-77
2023/01/30 12:33:49;;;;;;;14.30;2.13;;;11.10;69.00;;;;;;5056186;28;20017;-77
2023/01/30 12:36:32;;;;;;;20.60;3.10;;;10.80;70.10;;;;;;5054694;28;20373;-78
2023/01/30 12:39:29;;;;;;;19.77;3.07;;;10.60;70.90;;;;;;5054487;28;20055;-77
2023/01/30 12:42:07;;;;;;;16.90;2.60;;;10.40;71.90;;;;;;5056093;28;20021;-78
2023/01/30 12:45:00;;;;;;;16.87;2.77;;;10.30;72.40;;;;;;5056593;28;20025;-77
2023/01/30 12:47:50;;;;;;;19.80;2.67;;;10.10;72.60;;;;;;5050564;28;20115;-77
2023/01/30 12:50:55;;;;;;;21.40;2.77;;;9.90;73.20;;;;;;5036162;28;20029;-77
2023/01/30 12:53:28;;;;;;;17.52;3.20;;;9.80;74.00;;;;;;5037968;28;20024;-79
2023/01/30 12:56:00;;;;;;;18.83;3.28;;;9.70;74.40;;;;;;5049617;28;20096;-80
2023/01/30 12:58:44;;;;;;;22.87;3.23;;;9.60;74.70;;;;;;5055766;28;20024;-78
2023/01/30 13:01:24;;;;;;;19.90;3.35;;;9.60;75.50;;;;;;5055978;28;20029;-81
2023/01/30 13:04:22;;;;;;;19.00;3.10;;;9.60;75.00;;;;;;5054261;28;20045;-80
2023/01/30 13:07:08;;;;;;;21.80;3.43;;;9.50;74.40;;;;;;5055434;28;20033;-78
2023/01/30 13:09:48;;;;;;;19.33;3.07;;;9.50;74.60;;;;;;5055751;28;20036;-79